sensor_id;sensor_type;location;lat;lon;timestamp;P1;durP1;ratioP1;P2;durP2;ratioP2
64633;SDS011;51043;52.406;9.690;2023-04-16T00:00:51;26.80;;;20.47;;
64633;SDS011;51043;52.406;9.690;2023-04-16T00:03:19;32.53;;;21.53;;
64633;SDS011;51043;52.406;9.690;2023-04-16T00:05:47;29.67;;;21.90;;
64633;SDS011;51043;52.406;9.690;2023-04-16T00:08:16;29.60;;;22.40;;
64633;SDS011;51043;52.406;9.690;2023-04-16T00:10:45;26.63;;;22.20;;
64633;SDS011;51043;52.406;9.690;2023-04-16T00:13:13;25.93;;;21.27;;
64633;SDS011;51043;52.406;9.690;2023-04-16T00:15:41;30.33;;;22.37;;
64633;SDS011;51043;52.406;9.690;2023-04-16T00:18:09;28.77;;;22.20;;
64633;SDS011;51043;52.406;9.690;2023-04-16T00:20:37;28.50;;;22.60;;
64633;SDS011;51043;52.406;9.690;2023-04-16T00:23:05;28.40;;;22.10;;
64633;SDS011;51043;52.406;9.690;2023-04-16T00:25:35;30.97;;;21.87;;
64633;SDS011;51043;52.406;9.690;2023-04-16T00:28:03;28.83;;;22.00;;
64633;SDS011;51043;52.406;9.690;2023-04-16T00:30:31;28.37;;;22.13;;
64633;SDS011;51043;52.406;9.690;2023-04-16T00:32:59;35.47;;;23.43;;
64633;SDS011;51043;52.406;9.690;2023-04-16T00:35:28;32.47;;;23.87;;
64633;SDS011;51043;52.406;9.690;2023-04-16T00:37:56;32.00;;;24.47;;
64633;SDS011;51043;52.406;9.690;2023-04-16T00:40:26;29.53;;;23.73;;
64633;SDS011;51043;52.406;9.690;2023-04-16T00:42:56;28.63;;;23.37;;
64633;SDS011;51043;52.406;9.690;2023-04-16T00:45:24;30.67;;;23.63;;
64633;SDS011;51043;52.406;9.690;2023-04-16T00:47:52;27.33;;;23.83;;
64633;SDS011;51043;52.406;9.690;2023-04-16T00:50:20;32.87;;;25.03;;
64633;SDS011;51043;52.406;9.690;2023-04-16T00:52:48;29.67;;;24.70;;
64633;SDS011;51043;52.406;9.690;2023-04-16T00:55:17;36.03;;;25.20;;
64633;SDS011;51043;52.406;9.690;2023-04-16T00:57:46;33.63;;;25.43;;
64633;SDS011;51043;52.406;9.690;2023-04-16T01:00:16;36.23;;;26.80;;
64633;SDS011;51043;52.406;9.690;2023-04-16T01:02:44;32.47;;;24.63;;
64633;SDS011;51043;52.406;9.690;2023-04-16T01:05:12;31.63;;;24.57;;
64633;SDS011;51043;52.406;9.690;2023-04-16T01:07:40;33.73;;;24.27;;
64633;SDS011;51043;52.406;9.690;2023-04-16T01:10:08;33.43;;;24.23;;
64633;SDS011;51043;52.406;9.690;2023-04-16T01:12:36;29.47;;;22.70;;
64633;SDS011;51043;52.406;9.690;2023-04-16T01:15:05;32.07;;;24.43;;
64633;SDS011;51043;52.406;9.690;2023-04-16T01:17:35;41.33;;;24.43;;
64633;SDS011;51043;52.406;9.690;2023-04-16T01:20:04;31.97;;;23.43;;
64633;SDS011;51043;52.406;9.690;2023-04-16T01:22:34;32.20;;;23.23;;
64633;SDS011;51043;52.406;9.690;2023-04-16T01:25:03;33.70;;;23.73;;
64633;SDS011;51043;52.406;9.690;2023-04-16T01:27:32;28.77;;;22.63;;
64633;SDS011;51043;52.406;9.690;2023-04-16T01:30:00;34.17;;;21.73;;
64633;SDS011;51043;52.406;9.690;2023-04-16T01:32:39;30.27;;;22.90;;
64633;SDS011;51043;52.406;9.690;2023-04-16T01:35:07;34.27;;;23.97;;
64633;SDS011;51043;52.406;9.690;2023-04-16T01:37:37;33.43;;;24.97;;
64633;SDS011;51043;52.406;9.690;2023-04-16T01:40:05;32.73;;;23.83;;
64633;SDS011;51043;52.406;9.690;2023-04-16T01:42:34;31.80;;;24.57;;
64633;SDS011;51043;52.406;9.690;2023-04-16T01:45:02;37.00;;;25.07;;
64633;SDS011;51043;52.406;9.690;2023-04-16T01:47:31;33.60;;;24.97;;
64633;SDS011;51043;52.406;9.690;2023-04-16T01:49:59;36.33;;;25.77;;
64633;SDS011;51043;52.406;9.690;2023-04-16T01:52:28;34.80;;;24.23;;
64633;SDS011;51043;52.406;9.690;2023-04-16T01:54:58;27.27;;;21.53;;
64633;SDS011;51043;52.406;9.690;2023-04-16T01:57:25;34.90;;;26.03;;
64633;SDS011;51043;52.406;9.690;2023-04-16T01:59:53;39.90;;;27.27;;
64633;SDS011;51043;52.406;9.690;2023-04-16T02:02:22;38.23;;;27.37;;
64633;SDS011;51043;52.406;9.690;2023-04-16T02:04:53;37.20;;;27.03;;
64633;SDS011;51043;52.406;9.690;2023-04-16T02:07:22;32.53;;;26.07;;
64633;SDS011;51043;52.406;9.690;2023-04-16T02:09:51;42.43;;;27.73;;
64633;SDS011;51043;52.406;9.690;2023-04-16T02:12:20;39.43;;;27.63;;
64633;SDS011;51043;52.406;9.690;2023-04-16T02:14:48;36.63;;;27.37;;
64633;SDS011;51043;52.406;9.690;2023-04-16T02:17:17;34.67;;;27.43;;
64633;SDS011;51043;52.406;9.690;2023-04-16T02:19:48;35.50;;;26.33;;
64633;SDS011;51043;52.406;9.690;2023-04-16T02:22:17;36.43;;;26.70;;
64633;SDS011;51043;52.406;9.690;2023-04-16T02:24:45;34.50;;;27.20;;
64633;SDS011;51043;52.406;9.690;2023-04-16T02:27:14;31.33;;;26.60;;
64633;SDS011;51043;52.406;9.690;2023-04-16T02:29:44;33.23;;;26.13;;
64633;SDS011;51043;52.406;9.690;2023-04-16T02:32:15;33.93;;;26.30;;
64633;SDS011;51043;52.406;9.690;2023-04-16T02:34:44;30.50;;;25.03;;
64633;SDS011;51043;52.406;9.690;2023-04-16T02:37:14;28.43;;;22.07;;
64633;SDS011;51043;52.406;9.690;2023-04-16T02:39:42;27.53;;;21.80;;
64633;SDS011;51043;52.406;9.690;2023-04-16T02:42:12;36.03;;;25.47;;
64633;SDS011;51043;52.406;9.690;2023-04-16T02:44:40;33.30;;;24.83;;
64633;SDS011;51043;52.406;9.690;2023-04-16T02:47:10;31.33;;;25.33;;
64633;SDS011;51043;52.406;9.690;2023-04-16T02:49:38;34.23;;;25.87;;
64633;SDS011;51043;52.406;9.690;2023-04-16T02:52:06;35.27;;;26.60;;
64633;SDS011;51043;52.406;9.690;2023-04-16T02:54:34;38.03;;;27.33;;
64633;SDS011;51043;52.406;9.690;2023-04-16T02:57:05;38.23;;;26.63;;
64633;SDS011;51043;52.406;9.690;2023-04-16T02:59:33;38.70;;;27.73;;
64633;SDS011;51043;52.406;9.690;2023-04-16T03:02:01;35.60;;;27.07;;
64633;SDS011;51043;52.406;9.690;2023-04-16T03:04:33;38.60;;;27.67;;
64633;SDS011;51043;52.406;9.690;2023-04-16T03:07:02;35.13;;;25.33;;
64633;SDS011;51043;52.406;9.690;2023-04-16T03:09:30;37.80;;;27.00;;
64633;SDS011;51043;52.406;9.690;2023-04-16T03:11:58;37.03;;;27.47;;
64633;SDS011;51043;52.406;9.690;2023-04-16T03:14:28;40.97;;;27.63;;
64633;SDS011;51043;52.406;9.690;2023-04-16T03:16:56;37.33;;;27.90;;
64633;SDS011;51043;52.406;9.690;2023-04-16T03:19:24;36.50;;;27.57;;
64633;SDS011;51043;52.406;9.690;2023-04-16T03:21:54;39.33;;;28.33;;
64633;SDS011;51043;52.406;9.690;2023-04-16T03:24:22;37.57;;;27.63;;
64633;SDS011;51043;52.406;9.690;2023-04-16T03:26:50;39.33;;;27.33;;
64633;SDS011;51043;52.406;9.690;2023-04-16T03:29:21;45.80;;;29.33;;
64633;SDS011;51043;52.406;9.690;2023-04-16T03:31:49;38.30;;;27.77;;
64633;SDS011;51043;52.406;9.690;2023-04-16T03:34:17;37.23;;;26.63;;
64633;SDS011;51043;52.406;9.690;2023-04-16T03:36:45;39.10;;;27.83;;
64633;SDS011;51043;52.406;9.690;2023-04-16T03:39:15;37.07;;;28.40;;
64633;SDS011;51043;52.406;9.690;2023-04-16T03:41:43;37.23;;;28.93;;
64633;SDS011;51043;52.406;9.690;2023-04-16T03:44:11;43.77;;;29.13;;
64633;SDS011;51043;52.406;9.690;2023-04-16T03:46:40;41.23;;;28.03;;
64633;SDS011;51043;52.406;9.690;2023-04-16T03:49:08;32.37;;;25.27;;
64633;SDS011;51043;52.406;9.690;2023-04-16T03:51:36;39.43;;;27.23;;
64633;SDS011;51043;52.406;9.690;2023-04-16T03:54:04;32.63;;;25.97;;
64633;SDS011;51043;52.406;9.690;2023-04-16T03:56:34;39.47;;;27.23;;
64633;SDS011;51043;52.406;9.690;2023-04-16T03:59:02;38.27;;;25.67;;
64633;SDS011;51043;52.406;9.690;2023-04-16T04:01:31;35.73;;;26.77;;
64633;SDS011;51043;52.406;9.690;2023-04-16T04:04:00;35.83;;;26.63;;
64633;SDS011;51043;52.406;9.690;2023-04-16T04:06:28;36.47;;;27.07;;
64633;SDS011;51043;52.406;9.690;2023-04-16T04:08:57;35.77;;;27.47;;
64633;SDS011;51043;52.406;9.690;2023-04-16T04:11:25;40.57;;;27.60;;
64633;SDS011;51043;52.406;9.690;2023-04-16T04:13:55;37.73;;;26.93;;
64633;SDS011;51043;52.406;9.690;2023-04-16T04:16:23;35.37;;;26.10;;
64633;SDS011;51043;52.406;9.690;2023-04-16T04:18:51;32.53;;;25.90;;
64633;SDS011;51043;52.406;9.690;2023-04-16T04:21:21;34.20;;;25.53;;
64633;SDS011;51043;52.406;9.690;2023-04-16T04:23:49;35.27;;;24.07;;
64633;SDS011;51043;52.406;9.690;2023-04-16T04:26:17;32.63;;;25.40;;
64633;SDS011;51043;52.406;9.690;2023-04-16T04:28:46;36.40;;;25.70;;
64633;SDS011;51043;52.406;9.690;2023-04-16T04:31:17;35.67;;;25.73;;
64633;SDS011;51043;52.406;9.690;2023-04-16T04:33:45;36.37;;;25.93;;
64633;SDS011;51043;52.406;9.690;2023-04-16T04:36:13;38.63;;;26.37;;
64633;SDS011;51043;52.406;9.690;2023-04-16T04:38:41;38.73;;;26.47;;
64633;SDS011;51043;52.406;9.690;2023-04-16T04:41:09;40.40;;;26.37;;
64633;SDS011;51043;52.406;9.690;2023-04-16T04:43:37;43.87;;;26.37;;
64633;SDS011;51043;52.406;9.690;2023-04-16T04:46:06;37.90;;;25.13;;
64633;SDS011;51043;52.406;9.690;2023-04-16T04:48:35;37.90;;;25.33;;
64633;SDS011;51043;52.406;9.690;2023-04-16T04:51:03;31.93;;;24.17;;
64633;SDS011;51043;52.406;9.690;2023-04-16T04:53:32;36.27;;;25.67;;
64633;SDS011;51043;52.406;9.690;2023-04-16T04:56:00;41.63;;;26.13;;
64633;SDS011;51043;52.406;9.690;2023-04-16T04:58:36;35.17;;;25.93;;
64633;SDS011;51043;52.406;9.690;2023-04-16T05:01:05;34.50;;;25.67;;
64633;SDS011;51043;52.406;9.690;2023-04-16T05:03:33;34.27;;;23.73;;
64633;SDS011;51043;52.406;9.690;2023-04-16T05:06:03;39.97;;;23.77;;
64633;SDS011;51043;52.406;9.690;2023-04-16T05:08:31;35.33;;;25.43;;
64633;SDS011;51043;52.406;9.690;2023-04-16T05:10:59;39.73;;;25.77;;
64633;SDS011;51043;52.406;9.690;2023-04-16T05:13:27;36.30;;;25.70;;
64633;SDS011;51043;52.406;9.690;2023-04-16T05:15:55;32.13;;;23.17;;
64633;SDS011;51043;52.406;9.690;2023-04-16T05:18:23;30.27;;;22.87;;
64633;SDS011;51043;52.406;9.690;2023-04-16T05:20:52;33.63;;;23.73;;
64633;SDS011;51043;52.406;9.690;2023-04-16T05:23:21;34.43;;;23.60;;
64633;SDS011;51043;52.406;9.690;2023-04-16T05:25:49;32.43;;;24.60;;
64633;SDS011;51043;52.406;9.690;2023-04-16T05:28:17;34.80;;;22.57;;
64633;SDS011;51043;52.406;9.690;2023-04-16T05:30:45;30.97;;;23.40;;
64633;SDS011;51043;52.406;9.690;2023-04-16T05:33:13;32.83;;;22.70;;
64633;SDS011;51043;52.406;9.690;2023-04-16T05:35:41;29.93;;;22.20;;
64633;SDS011;51043;52.406;9.690;2023-04-16T05:38:09;33.10;;;22.90;;
64633;SDS011;51043;52.406;9.690;2023-04-16T05:40:39;30.80;;;21.40;;
64633;SDS011;51043;52.406;9.690;2023-04-16T05:43:07;29.47;;;22.73;;
64633;SDS011;51043;52.406;9.690;2023-04-16T05:45:35;30.27;;;21.60;;
64633;SDS011;51043;52.406;9.690;2023-04-16T05:48:06;37.10;;;22.83;;
64633;SDS011;51043;52.406;9.690;2023-04-16T05:50:35;26.53;;;20.83;;
64633;SDS011;51043;52.406;9.690;2023-04-16T05:53:04;34.63;;;21.87;;
64633;SDS011;51043;52.406;9.690;2023-04-16T05:55:36;32.47;;;21.47;;
64633;SDS011;51043;52.406;9.690;2023-04-16T05:58:05;33.23;;;20.90;;
64633;SDS011;51043;52.406;9.690;2023-04-16T06:00:33;31.73;;;22.13;;
64633;SDS011;51043;52.406;9.690;2023-04-16T06:03:01;37.93;;;22.03;;
64633;SDS011;51043;52.406;9.690;2023-04-16T06:05:30;33.07;;;20.83;;
64633;SDS011;51043;52.406;9.690;2023-04-16T06:07:58;27.17;;;20.57;;
64633;SDS011;51043;52.406;9.690;2023-04-16T06:10:26;26.23;;;20.90;;
64633;SDS011;51043;52.406;9.690;2023-04-16T06:12:54;25.90;;;20.03;;
64633;SDS011;51043;52.406;9.690;2023-04-16T06:15:24;27.50;;;20.63;;
64633;SDS011;51043;52.406;9.690;2023-04-16T06:17:52;28.93;;;20.47;;
64633;SDS011;51043;52.406;9.690;2023-04-16T06:20:21;28.87;;;20.20;;
64633;SDS011;51043;52.406;9.690;2023-04-16T06:22:49;30.03;;;20.97;;
64633;SDS011;51043;52.406;9.690;2023-04-16T06:25:17;30.00;;;20.53;;
64633;SDS011;51043;52.406;9.690;2023-04-16T06:27:45;26.97;;;20.20;;
64633;SDS011;51043;52.406;9.690;2023-04-16T06:30:14;28.03;;;19.67;;
64633;SDS011;51043;52.406;9.690;2023-04-16T06:32:44;26.00;;;18.67;;
64633;SDS011;51043;52.406;9.690;2023-04-16T06:35:12;28.77;;;19.37;;
64633;SDS011;51043;52.406;9.690;2023-04-16T06:37:40;26.53;;;19.10;;
64633;SDS011;51043;52.406;9.690;2023-04-16T06:40:09;24.90;;;18.57;;
64633;SDS011;51043;52.406;9.690;2023-04-16T06:42:37;26.77;;;19.07;;
64633;SDS011;51043;52.406;9.690;2023-04-16T06:45:06;29.53;;;21.10;;
64633;SDS011;51043;52.406;9.690;2023-04-16T06:47:35;28.97;;;19.23;;
64633;SDS011;51043;52.406;9.690;2023-04-16T06:50:05;28.50;;;19.20;;
64633;SDS011;51043;52.406;9.690;2023-04-16T06:52:34;26.07;;;19.67;;
64633;SDS011;51043;52.406;9.690;2023-04-16T06:55:02;28.17;;;18.93;;
64633;SDS011;51043;52.406;9.690;2023-04-16T06:57:30;31.83;;;19.00;;
64633;SDS011;51043;52.406;9.690;2023-04-16T06:59:59;28.83;;;19.47;;
64633;SDS011;51043;52.406;9.690;2023-04-16T07:02:27;27.37;;;19.33;;
64633;SDS011;51043;52.406;9.690;2023-04-16T07:04:55;29.30;;;19.37;;
64633;SDS011;51043;52.406;9.690;2023-04-16T07:07:25;25.17;;;18.80;;
64633;SDS011;51043;52.406;9.690;2023-04-16T07:09:53;24.47;;;18.47;;
64633;SDS011;51043;52.406;9.690;2023-04-16T07:12:21;23.17;;;18.33;;
64633;SDS011;51043;52.406;9.690;2023-04-16T07:14:49;24.87;;;18.30;;
64633;SDS011;51043;52.406;9.690;2023-04-16T07:17:18;26.40;;;18.40;;
64633;SDS011;51043;52.406;9.690;2023-04-16T07:19:46;23.60;;;18.83;;
64633;SDS011;51043;52.406;9.690;2023-04-16T07:22:14;23.20;;;17.50;;
64633;SDS011;51043;52.406;9.690;2023-04-16T07:24:44;25.57;;;17.87;;
64633;SDS011;51043;52.406;9.690;2023-04-16T07:27:12;28.30;;;18.00;;
64633;SDS011;51043;52.406;9.690;2023-04-16T07:29:41;24.53;;;18.47;;
64633;SDS011;51043;52.406;9.690;2023-04-16T07:32:10;25.47;;;17.67;;
64633;SDS011;51043;52.406;9.690;2023-04-16T07:34:40;19.33;;;14.90;;
64633;SDS011;51043;52.406;9.690;2023-04-16T07:37:08;28.70;;;17.57;;
64633;SDS011;51043;52.406;9.690;2023-04-16T07:39:36;26.70;;;17.20;;
64633;SDS011;51043;52.406;9.690;2023-04-16T07:42:08;33.07;;;16.73;;
64633;SDS011;51043;52.406;9.690;2023-04-16T07:47:58;25.60;;;17.17;;
64633;SDS011;51043;52.406;9.690;2023-04-16T07:50:27;25.40;;;17.67;;
64633;SDS011;51043;52.406;9.690;2023-04-16T07:52:55;17.83;;;13.00;;
64633;SDS011;51043;52.406;9.690;2023-04-16T07:55:23;29.03;;;19.70;;
64633;SDS011;51043;52.406;9.690;2023-04-16T07:57:54;28.67;;;17.23;;
64633;SDS011;51043;52.406;9.690;2023-04-16T08:00:22;25.20;;;17.73;;
64633;SDS011;51043;52.406;9.690;2023-04-16T08:02:51;21.97;;;16.03;;
64633;SDS011;51043;52.406;9.690;2023-04-16T08:05:20;23.83;;;16.63;;
64633;SDS011;51043;52.406;9.690;2023-04-16T08:07:48;23.97;;;17.27;;
64633;SDS011;51043;52.406;9.690;2023-04-16T08:10:17;20.90;;;16.57;;
64633;SDS011;51043;52.406;9.690;2023-04-16T08:12:47;20.63;;;16.70;;
64633;SDS011;51043;52.406;9.690;2023-04-16T08:15:31;21.10;;;16.53;;
64633;SDS011;51043;52.406;9.690;2023-04-16T08:18:00;26.00;;;17.70;;
64633;SDS011;51043;52.406;9.690;2023-04-16T08:20:30;21.50;;;16.17;;
64633;SDS011;51043;52.406;9.690;2023-04-16T08:22:58;23.33;;;16.50;;
64633;SDS011;51043;52.406;9.690;2023-04-16T08:25:28;19.50;;;15.83;;
64633;SDS011;51043;52.406;9.690;2023-04-16T08:28:00;22.53;;;16.13;;
64633;SDS011;51043;52.406;9.690;2023-04-16T08:30:29;24.37;;;16.33;;
64633;SDS011;51043;52.406;9.690;2023-04-16T08:33:30;27.37;;;16.43;;
64633;SDS011;51043;52.406;9.690;2023-04-16T08:38:53;16.97;;;13.13;;
64633;SDS011;51043;52.406;9.690;2023-04-16T08:41:22;27.60;;;16.83;;
64633;SDS011;51043;52.406;9.690;2023-04-16T08:44:03;24.70;;;17.10;;
64633;SDS011;51043;52.406;9.690;2023-04-16T08:46:37;23.20;;;15.67;;
64633;SDS011;51043;52.406;9.690;2023-04-16T08:49:08;24.17;;;17.47;;
64633;SDS011;51043;52.406;9.690;2023-04-16T08:51:48;18.77;;;15.67;;
64633;SDS011;51043;52.406;9.690;2023-04-16T08:54:38;22.63;;;16.83;;
64633;SDS011;51043;52.406;9.690;2023-04-16T08:57:13;20.60;;;15.90;;
64633;SDS011;51043;52.406;9.690;2023-04-16T08:59:45;25.23;;;16.13;;
64633;SDS011;51043;52.406;9.690;2023-04-16T09:02:16;23.50;;;16.20;;
64633;SDS011;51043;52.406;9.690;2023-04-16T09:05:19;27.53;;;17.07;;
64633;SDS011;51043;52.406;9.690;2023-04-16T09:10:49;21.43;;;16.83;;
64633;SDS011;51043;52.406;9.690;2023-04-16T09:13:19;23.03;;;17.47;;
64633;SDS011;51043;52.406;9.690;2023-04-16T09:18:45;21.00;;;15.80;;
64633;SDS011;51043;52.406;9.690;2023-04-16T09:21:18;20.33;;;16.67;;
64633;SDS011;51043;52.406;9.690;2023-04-16T09:26:42;19.53;;;15.47;;
64633;SDS011;51043;52.406;9.690;2023-04-16T09:29:21;20.43;;;16.33;;
64633;SDS011;51043;52.406;9.690;2023-04-16T09:32:01;21.33;;;16.50;;
64633;SDS011;51043;52.406;9.690;2023-04-16T09:34:32;23.53;;;16.17;;
64633;SDS011;51043;52.406;9.690;2023-04-16T09:37:13;20.80;;;16.77;;
64633;SDS011;51043;52.406;9.690;2023-04-16T09:39:42;21.80;;;16.20;;
64633;SDS011;51043;52.406;9.690;2023-04-16T09:42:20;24.53;;;16.97;;
64633;SDS011;51043;52.406;9.690;2023-04-16T09:44:48;20.80;;;16.57;;
64633;SDS011;51043;52.406;9.690;2023-04-16T09:47:17;23.43;;;16.90;;
64633;SDS011;51043;52.406;9.690;2023-04-16T09:49:50;23.93;;;17.17;;
64633;SDS011;51043;52.406;9.690;2023-04-16T09:52:24;22.93;;;18.47;;
64633;SDS011;51043;52.406;9.690;2023-04-16T09:54:52;29.07;;;18.90;;
64633;SDS011;51043;52.406;9.690;2023-04-16T09:57:28;30.13;;;21.63;;
64633;SDS011;51043;52.406;9.690;2023-04-16T10:00:18;25.77;;;21.13;;
64633;SDS011;51043;52.406;9.690;2023-04-16T10:06:15;26.03;;;21.33;;
64633;SDS011;51043;52.406;9.690;2023-04-16T10:08:45;26.90;;;21.67;;
64633;SDS011;51043;52.406;9.690;2023-04-16T10:11:15;27.73;;;21.47;;
64633;SDS011;51043;52.406;9.690;2023-04-16T10:13:45;24.10;;;19.97;;
64633;SDS011;51043;52.406;9.690;2023-04-16T10:16:40;23.80;;;20.20;;
64633;SDS011;51043;52.406;9.690;2023-04-16T10:19:13;30.47;;;21.13;;
64633;SDS011;51043;52.406;9.690;2023-04-16T10:21:43;25.00;;;21.30;;
64633;SDS011;51043;52.406;9.690;2023-04-16T10:24:17;36.23;;;25.43;;
64633;SDS011;51043;52.406;9.690;2023-04-16T10:26:46;29.43;;;23.57;;
64633;SDS011;51043;52.406;9.690;2023-04-16T10:29:16;31.87;;;23.60;;
64633;SDS011;51043;52.406;9.690;2023-04-16T10:31:52;31.93;;;24.17;;
64633;SDS011;51043;52.406;9.690;2023-04-16T10:34:27;28.80;;;23.47;;
64633;SDS011;51043;52.406;9.690;2023-04-16T10:37:19;29.57;;;22.30;;
64633;SDS011;51043;52.406;9.690;2023-04-16T10:40:35;30.43;;;23.03;;
64633;SDS011;51043;52.406;9.690;2023-04-16T10:43:04;27.50;;;23.03;;
64633;SDS011;51043;52.406;9.690;2023-04-16T10:45:36;25.67;;;21.17;;
64633;SDS011;51043;52.406;9.690;2023-04-16T10:48:09;25.83;;;21.67;;
64633;SDS011;51043;52.406;9.690;2023-04-16T10:50:44;32.63;;;22.40;;
64633;SDS011;51043;52.406;9.690;2023-04-16T10:53:25;26.70;;;22.10;;
64633;SDS011;51043;52.406;9.690;2023-04-16T10:55:58;28.20;;;21.20;;
64633;SDS011;51043;52.406;9.690;2023-04-16T10:58:52;28.37;;;21.83;;
64633;SDS011;51043;52.406;9.690;2023-04-16T11:01:28;30.50;;;21.30;;
64633;SDS011;51043;52.406;9.690;2023-04-16T11:07:05;29.20;;;21.50;;
64633;SDS011;51043;52.406;9.690;2023-04-16T11:09:54;25.93;;;21.27;;
64633;SDS011;51043;52.406;9.690;2023-04-16T11:12:26;27.77;;;21.73;;
64633;SDS011;51043;52.406;9.690;2023-04-16T11:15:13;25.27;;;20.73;;
64633;SDS011;51043;52.406;9.690;2023-04-16T11:17:42;28.47;;;21.70;;
64633;SDS011;51043;52.406;9.690;2023-04-16T11:20:15;24.43;;;21.80;;
64633;SDS011;51043;52.406;9.690;2023-04-16T11:23:04;30.13;;;22.97;;
64633;SDS011;51043;52.406;9.690;2023-04-16T11:26:27;26.93;;;22.17;;
64633;SDS011;51043;52.406;9.690;2023-04-16T11:29:01;27.27;;;21.60;;
64633;SDS011;51043;52.406;9.690;2023-04-16T11:31:40;27.87;;;22.37;;
64633;SDS011;51043;52.406;9.690;2023-04-16T11:34:16;27.37;;;21.37;;
64633;SDS011;51043;52.406;9.690;2023-04-16T11:36:58;28.17;;;22.07;;
64633;SDS011;51043;52.406;9.690;2023-04-16T11:39:26;30.20;;;22.57;;
64633;SDS011;51043;52.406;9.690;2023-04-16T11:41:56;27.00;;;20.67;;
64633;SDS011;51043;52.406;9.690;2023-04-16T11:44:40;24.47;;;20.07;;
64633;SDS011;51043;52.406;9.690;2023-04-16T11:47:10;24.27;;;21.00;;
64633;SDS011;51043;52.406;9.690;2023-04-16T11:49:40;25.63;;;20.57;;
64633;SDS011;51043;52.406;9.690;2023-04-16T11:55:05;25.47;;;20.87;;
64633;SDS011;51043;52.406;9.690;2023-04-16T11:57:36;28.30;;;20.80;;
64633;SDS011;51043;52.406;9.690;2023-04-16T12:00:05;25.60;;;19.30;;
64633;SDS011;51043;52.406;9.690;2023-04-16T12:02:43;27.07;;;20.20;;
64633;SDS011;51043;52.406;9.690;2023-04-16T12:05:25;24.83;;;19.10;;
64633;SDS011;51043;52.406;9.690;2023-04-16T12:07:55;25.80;;;18.90;;
64633;SDS011;51043;52.406;9.690;2023-04-16T12:10:24;25.53;;;18.80;;
64633;SDS011;51043;52.406;9.690;2023-04-16T12:12:54;22.63;;;18.67;;
64633;SDS011;51043;52.406;9.690;2023-04-16T12:15:43;23.90;;;18.77;;
64633;SDS011;51043;52.406;9.690;2023-04-16T12:18:18;21.73;;;17.87;;
64633;SDS011;51043;52.406;9.690;2023-04-16T12:20:50;26.43;;;19.07;;
64633;SDS011;51043;52.406;9.690;2023-04-16T12:23:21;24.73;;;19.50;;
64633;SDS011;51043;52.406;9.690;2023-04-16T12:25:51;22.93;;;18.83;;
64633;SDS011;51043;52.406;9.690;2023-04-16T12:28:29;25.77;;;19.03;;
64633;SDS011;51043;52.406;9.690;2023-04-16T12:30:59;23.60;;;19.07;;
64633;SDS011;51043;52.406;9.690;2023-04-16T12:33:28;23.50;;;18.90;;
64633;SDS011;51043;52.406;9.690;2023-04-16T12:35:57;23.70;;;18.30;;
64633;SDS011;51043;52.406;9.690;2023-04-16T12:38:34;25.23;;;19.17;;
64633;SDS011;51043;52.406;9.690;2023-04-16T12:41:02;22.60;;;18.37;;
64633;SDS011;51043;52.406;9.690;2023-04-16T12:43:33;22.17;;;18.27;;
64633;SDS011;51043;52.406;9.690;2023-04-16T12:46:03;23.07;;;17.30;;
64633;SDS011;51043;52.406;9.690;2023-04-16T12:48:35;21.03;;;16.83;;
64633;SDS011;51043;52.406;9.690;2023-04-16T12:51:14;25.83;;;17.43;;
64633;SDS011;51043;52.406;9.690;2023-04-16T12:53:49;21.50;;;17.47;;
64633;SDS011;51043;52.406;9.690;2023-04-16T12:56:18;22.83;;;17.00;;
64633;SDS011;51043;52.406;9.690;2023-04-16T12:58:51;17.80;;;15.80;;
64633;SDS011;51043;52.406;9.690;2023-04-16T13:01:19;21.33;;;15.70;;
64633;SDS011;51043;52.406;9.690;2023-04-16T13:03:53;19.57;;;15.67;;
64633;SDS011;51043;52.406;9.690;2023-04-16T13:06:24;19.87;;;15.57;;
64633;SDS011;51043;52.406;9.690;2023-04-16T13:08:52;22.17;;;14.87;;
64633;SDS011;51043;52.406;9.690;2023-04-16T13:11:21;19.60;;;14.73;;
64633;SDS011;51043;52.406;9.690;2023-04-16T13:13:50;18.50;;;14.50;;
64633;SDS011;51043;52.406;9.690;2023-04-16T13:16:20;21.30;;;15.30;;
64633;SDS011;51043;52.406;9.690;2023-04-16T13:18:53;19.47;;;13.50;;
64633;SDS011;51043;52.406;9.690;2023-04-16T13:21:21;17.53;;;13.07;;
64633;SDS011;51043;52.406;9.690;2023-04-16T13:23:50;15.77;;;12.30;;
64633;SDS011;51043;52.406;9.690;2023-04-16T13:26:19;14.07;;;11.10;;
64633;SDS011;51043;52.406;9.690;2023-04-16T13:28:47;12.32;;;10.27;;
64633;SDS011;51043;52.406;9.690;2023-04-16T13:31:19;11.90;;;10.70;;
64633;SDS011;51043;52.406;9.690;2023-04-16T13:33:48;12.35;;;10.05;;
64633;SDS011;51043;52.406;9.690;2023-04-16T13:36:17;10.82;;;9.48;;
64633;SDS011;51043;52.406;9.690;2023-04-16T13:38:56;18.60;;;16.67;;
64633;SDS011;51043;52.406;9.690;2023-04-16T13:41:24;14.05;;;10.43;;
64633;SDS011;51043;52.406;9.690;2023-04-16T13:43:56;13.57;;;10.30;;
64633;SDS011;51043;52.406;9.690;2023-04-16T13:46:26;13.30;;;11.93;;
64633;SDS011;51043;52.406;9.690;2023-04-16T13:48:57;12.40;;;9.98;;
64633;SDS011;51043;52.406;9.690;2023-04-16T13:51:25;13.73;;;10.20;;
64633;SDS011;51043;52.406;9.690;2023-04-16T13:53:57;14.02;;;10.82;;
64633;SDS011;51043;52.406;9.690;2023-04-16T13:56:28;12.88;;;10.15;;
64633;SDS011;51043;52.406;9.690;2023-04-16T13:58:58;12.35;;;10.05;;
64633;SDS011;51043;52.406;9.690;2023-04-16T14:01:28;11.38;;;9.73;;
64633;SDS011;51043;52.406;9.690;2023-04-16T14:03:57;14.27;;;10.07;;
64633;SDS011;51043;52.406;9.690;2023-04-16T14:06:31;15.05;;;10.13;;
64633;SDS011;51043;52.406;9.690;2023-04-16T14:09:04;13.98;;;10.52;;
64633;SDS011;51043;52.406;9.690;2023-04-16T14:11:32;11.80;;;10.25;;
64633;SDS011;51043;52.406;9.690;2023-04-16T14:14:00;12.73;;;9.80;;
64633;SDS011;51043;52.406;9.690;2023-04-16T14:16:30;15.20;;;10.73;;
64633;SDS011;51043;52.406;9.690;2023-04-16T14:18:58;12.82;;;10.20;;
64633;SDS011;51043;52.406;9.690;2023-04-16T14:21:26;12.37;;;10.63;;
64633;SDS011;51043;52.406;9.690;2023-04-16T14:23:54;15.30;;;10.27;;
64633;SDS011;51043;52.406;9.690;2023-04-16T14:26:26;14.07;;;9.37;;
64633;SDS011;51043;52.406;9.690;2023-04-16T14:28:57;12.23;;;9.23;;
64633;SDS011;51043;52.406;9.690;2023-04-16T14:31:29;13.47;;;9.63;;
64633;SDS011;51043;52.406;9.690;2023-04-16T14:34:04;14.77;;;10.20;;
64633;SDS011;51043;52.406;9.690;2023-04-16T14:36:33;12.13;;;9.90;;
64633;SDS011;51043;52.406;9.690;2023-04-16T14:39:02;11.97;;;10.00;;
64633;SDS011;51043;52.406;9.690;2023-04-16T14:41:33;11.60;;;10.07;;
64633;SDS011;51043;52.406;9.690;2023-04-16T14:44:01;11.80;;;9.87;;
64633;SDS011;51043;52.406;9.690;2023-04-16T14:46:32;13.00;;;10.20;;
64633;SDS011;51043;52.406;9.690;2023-04-16T14:49:01;11.57;;;9.83;;
64633;SDS011;51043;52.406;9.690;2023-04-16T14:51:29;11.03;;;9.73;;
64633;SDS011;51043;52.406;9.690;2023-04-16T14:53:59;13.10;;;9.50;;
64633;SDS011;51043;52.406;9.690;2023-04-16T14:56:27;14.27;;;10.27;;
64633;SDS011;51043;52.406;9.690;2023-04-16T14:58:56;13.13;;;10.07;;
64633;SDS011;51043;52.406;9.690;2023-04-16T15:01:25;12.23;;;10.77;;
64633;SDS011;51043;52.406;9.690;2023-04-16T15:03:57;14.13;;;10.70;;
64633;SDS011;51043;52.406;9.690;2023-04-16T15:06:27;11.43;;;9.70;;